createdAt,value
2018-12-22T00:00:15.408Z,97.26
2018-12-22T00:02:42.961Z,97.70
2018-12-22T00:05:10.504Z,98.22
2018-12-22T00:07:38.177Z,98.56
2018-12-22T00:10:05.757Z,98.93
2018-12-22T00:12:33.367Z,98.72
2018-12-22T00:15:01.438Z,98.64
2018-12-22T00:17:28.981Z,98.41
2018-12-22T00:19:56.539Z,98.26
2018-12-22T00:22:24.217Z,98.48
2018-12-22T00:24:51.793Z,98.25
2018-12-22T00:27:19.360Z,97.98
2018-12-22T00:29:47.160Z,97.31
2018-12-22T00:32:14.699Z,96.64
2018-12-22T00:34:42.303Z,96.85
2018-12-22T00:37:10.937Z,96.95
2018-12-22T00:39:38.493Z,97.40
2018-12-22T00:42:06.066Z,97.17
2018-12-22T00:44:34.595Z,97.67
2018-12-22T00:47:02.150Z,97.77
2018-12-22T00:49:29.700Z,97.69
2018-12-22T00:51:57.380Z,97.14
2018-12-22T00:54:24.951Z,96.55
2018-12-22T00:56:52.512Z,96.42
2018-12-22T00:59:20.100Z,96.62
2018-12-22T01:01:47.673Z,96.57
2018-12-22T01:04:15.242Z,96.23
2018-12-22T01:06:42.942Z,96.43
2018-12-22T01:09:10.510Z,96.64
2018-12-22T01:11:38.041Z,96.83
2018-12-22T01:14:05.684Z,97.10
2018-12-22T01:16:33.270Z,96.48
2018-12-22T01:19:00.784Z,96.54
2018-12-22T01:21:28.398Z,96.55
2018-12-22T01:23:55.950Z,96.32
2018-12-22T01:26:23.529Z,95.68
2018-12-22T01:28:51.187Z,96.52
2018-12-22T01:31:18.738Z,97.09
2018-12-22T01:33:46.280Z,96.81
2018-12-22T01:36:13.889Z,96.95
2018-12-22T01:38:41.444Z,96.49
2018-12-22T01:41:08.977Z,96.95
2018-12-22T01:43:36.702Z,97.44
2018-12-22T01:46:04.293Z,97.53
2018-12-22T01:48:31.860Z,97.30
2018-12-22T01:50:59.553Z,97.13
2018-12-22T01:53:27.110Z,97.21
2018-12-22T01:55:54.656Z,97.36
2018-12-22T01:58:22.268Z,97.18
2018-12-22T02:00:49.816Z,97.05
2018-12-22T02:03:17.417Z,97.12
2018-12-22T02:05:45.153Z,97.10
2018-12-22T02:08:12.699Z,96.94
2018-12-22T02:10:40.245Z,96.48
2018-12-22T02:13:07.810Z,95.05
2018-12-22T02:15:35.386Z,94.74
2018-12-22T02:18:03.019Z,94.74
2018-12-22T02:20:30.713Z,93.68
2018-12-22T02:22:58.241Z,92.77
2018-12-22T02:25:25.796Z,93.84
2018-12-22T02:27:53.588Z,93.80
2018-12-22T02:30:21.168Z,94.68
2018-12-22T02:32:48.688Z,95.53
2018-12-22T02:35:16.637Z,95.49
2018-12-22T02:37:44.225Z,95.22
2018-12-22T02:40:11.792Z,95.14
2018-12-22T02:42:54.670Z,95.66
2018-12-22T02:45:22.236Z,95.42
2018-12-22T02:47:49.780Z,96.02
2018-12-22T02:50:17.503Z,95.42
2018-12-22T02:52:45.125Z,96.06
2018-12-22T02:55:12.688Z,97.12
2018-12-22T02:57:40.412Z,97.60
2018-12-22T03:00:08.047Z,96.97
2018-12-22T03:02:35.627Z,96.90
2018-12-22T03:05:03.406Z,96.89
2018-12-22T03:07:30.928Z,96.93
2018-12-22T03:09:58.485Z,96.14
2018-12-22T03:12:30.604Z,96.31
2018-12-22T03:14:58.289Z,96.44
2018-12-22T03:17:25.797Z,96.46
2018-12-22T03:19:53.814Z,96.16
2018-12-22T03:22:21.370Z,96.23
2018-12-22T03:24:48.918Z,96.10
2018-12-22T03:27:16.699Z,96.33
2018-12-22T03:29:44.277Z,96.59
2018-12-22T03:32:11.835Z,96.40
2018-12-22T03:34:39.774Z,95.45
2018-12-22T03:37:07.329Z,95.34
2018-12-22T03:39:34.879Z,95.19
2018-12-22T03:42:02.693Z,93.65
2018-12-22T03:44:30.236Z,94.75
2018-12-22T03:46:57.797Z,95.10
2018-12-22T03:49:25.496Z,95.25
2018-12-22T03:51:53.068Z,96.41
2018-12-22T03:54:20.642Z,96.36
2018-12-22T03:56:48.334Z,96.90
2018-12-22T03:59:24.543Z,97.08
2018-12-22T04:01:43.521Z,97.09
2018-12-22T04:04:11.204Z,97.48
2018-12-22T04:06:39.193Z,97.62
2018-12-22T04:09:09.010Z,97.22
2018-12-22T04:11:34.477Z,96.54
2018-12-22T04:14:02.086Z,97.45
2018-12-22T04:16:29.654Z,96.95
2018-12-22T04:18:57.242Z,97.18
2018-12-22T04:21:24.804Z,97.24
2018-12-22T04:23:52.387Z,97.61
2018-12-22T04:26:20.257Z,97.26
2018-12-22T04:28:47.812Z,97.64
2018-12-22T04:31:15.358Z,98.14
2018-12-22T04:33:43.232Z,97.55
2018-12-22T04:36:10.768Z,96.67
2018-12-22T04:38:38.334Z,96.64
2018-12-22T04:41:06.965Z,96.50
2018-12-22T04:43:34.560Z,96.95
2018-12-22T04:46:02.097Z,96.99
2018-12-22T04:48:29.807Z,96.61
2018-12-22T04:50:57.366Z,96.57
2018-12-22T04:53:24.914Z,96.82
2018-12-22T04:55:52.601Z,97.00
2018-12-22T04:58:20.150Z,97.58
2018-12-22T05:00:47.708Z,97.46
2018-12-22T05:03:15.305Z,97.21
2018-12-22T05:05:42.846Z,97.44
2018-12-22T05:08:10.434Z,97.65
2018-12-22T05:10:39.211Z,96.85
2018-12-22T05:13:06.737Z,96.67
2018-12-22T05:15:34.293Z,96.82
2018-12-22T05:18:01.948Z,96.28
2018-12-22T05:20:29.515Z,95.59
2018-12-22T05:22:57.090Z,95.78
2018-12-22T05:25:24.819Z,96.07
2018-12-22T05:27:52.359Z,95.59
2018-12-22T05:30:19.899Z,95.98
2018-12-22T05:32:49.433Z,94.95
2018-12-22T05:35:16.988Z,95.23
2018-12-22T05:37:44.553Z,94.82
2018-12-22T05:40:12.452Z,95.62
2018-12-22T05:42:40.019Z,95.99
2018-12-22T05:45:07.572Z,95.71
2018-12-22T05:47:35.449Z,96.22
2018-12-22T05:50:03.011Z,96.37
2018-12-22T05:52:30.577Z,95.99
2018-12-22T05:54:58.326Z,96.23
2018-12-22T05:57:25.863Z,96.13
2018-12-22T06:00:00.404Z,95.74
2018-12-22T06:02:21.071Z,94.55
2018-12-22T06:04:48.627Z,94.06
2018-12-22T06:07:16.227Z,94.94
2018-12-22T06:09:43.943Z,95.15
2018-12-22T06:12:11.521Z,94.91
2018-12-22T06:14:39.044Z,93.95
2018-12-22T06:17:06.742Z,95.02
2018-12-22T06:19:34.310Z,95.89
2018-12-22T06:22:01.849Z,96.68
2018-12-22T06:24:29.762Z,96.92
2018-12-22T06:26:57.323Z,96.47
2018-12-22T06:29:24.844Z,95.34
2018-12-22T06:31:52.956Z,94.27
2018-12-22T06:34:20.501Z,95.06
2018-12-22T06:36:48.080Z,95.63
2018-12-22T06:39:15.942Z,96.15
2018-12-22T06:41:43.544Z,95.98
2018-12-22T06:44:11.129Z,96.46
2018-12-22T06:46:38.876Z,96.34
2018-12-22T06:49:06.445Z,95.05
2018-12-22T06:51:34.014Z,94.67
2018-12-22T06:54:01.864Z,95.42
2018-12-22T06:56:29.441Z,95.23
2018-12-22T06:58:57.030Z,94.81
2018-12-22T07:01:24.834Z,94.30
2018-12-22T07:03:52.417Z,94.79
2018-12-22T07:06:20.013Z,95.16
2018-12-22T07:08:47.676Z,95.85
2018-12-22T07:11:15.215Z,96.15
2018-12-22T07:13:42.768Z,95.24
2018-12-22T07:16:10.410Z,93.99
2018-12-22T07:18:37.949Z,94.03
2018-12-22T07:21:05.517Z,94.99
2018-12-22T07:23:33.309Z,93.72
2018-12-22T07:26:00.868Z,92.38
2018-12-22T07:28:28.428Z,92.67
2018-12-22T07:30:56.239Z,92.99
2018-12-22T07:33:23.796Z,93.56
2018-12-22T07:35:51.381Z,94.36
2018-12-22T07:38:19.285Z,93.17
2018-12-22T07:40:46.836Z,94.34
2018-12-22T07:43:14.378Z,94.77
2018-12-22T07:45:42.295Z,93.81
2018-12-22T07:48:09.861Z,93.28
2018-12-22T07:50:37.409Z,93.83
2018-12-22T07:53:05.107Z,93.97
2018-12-22T07:55:32.703Z,93.68
2018-12-22T07:58:00.257Z,94.11
2018-12-22T08:00:34.827Z,95.29
2018-12-22T08:02:55.556Z,94.95
2018-12-22T08:05:23.132Z,93.86
2018-12-22T08:07:50.836Z,92.56
2018-12-22T08:10:18.403Z,91.73
2018-12-22T08:12:53.669Z,91.89
2018-12-22T08:15:21.237Z,91.73
2018-12-22T08:17:48.787Z,92.23
2018-12-22T08:20:16.481Z,92.03
2018-12-22T08:22:44.021Z,91.60
2018-12-22T08:25:11.590Z,93.11
2018-12-22T08:27:39.513Z,93.18
2018-12-22T08:30:07.127Z,93.91
2018-12-22T08:32:34.720Z,93.37
2018-12-22T08:35:02.617Z,91.93
2018-12-22T08:37:30.194Z,91.76
2018-12-22T08:39:57.736Z,93.00
2018-12-22T08:42:25.347Z,94.35
2018-12-22T08:44:52.891Z,92.98
2018-12-22T08:47:20.466Z,91.11
2018-12-22T08:49:48.193Z,91.39
2018-12-22T08:52:15.720Z,92.96
2018-12-22T08:54:43.270Z,94.04
2018-12-22T08:57:10.972Z,94.05
2018-12-22T08:59:38.548Z,93.94
2018-12-22T09:02:06.123Z,94.36
2018-12-22T09:04:34.025Z,94.36
2018-12-22T09:07:01.605Z,93.43
2018-12-22T09:09:29.155Z,91.74
2018-12-22T09:11:56.874Z,91.80
2018-12-22T09:14:24.441Z,92.02
2018-12-22T09:16:52.012Z,92.04
2018-12-22T09:19:20.018Z,92.74
2018-12-22T09:21:47.570Z,93.24
2018-12-22T09:24:15.131Z,93.00
2018-12-22T09:26:42.835Z,93.55
2018-12-22T09:29:10.403Z,90.52
2018-12-22T09:31:37.954Z,89.94
2018-12-22T09:34:13.044Z,89.53
2018-12-22T09:36:33.150Z,89.66
2018-12-22T09:39:00.709Z,90.50
2018-12-22T09:41:28.339Z,90.71
2018-12-22T09:43:55.902Z,90.32
2018-12-22T09:46:23.447Z,89.57
2018-12-22T09:48:52.224Z,89.53
2018-12-22T09:51:19.802Z,87.59
2018-12-22T09:53:47.353Z,84.31
2018-12-22T09:56:14.954Z,84.69
2018-12-22T09:58:42.509Z,85.56
2018-12-22T10:01:10.064Z,86.49
2018-12-22T10:03:37.754Z,86.16
2018-12-22T10:06:05.319Z,85.29
2018-12-22T10:08:32.901Z,85.66
2018-12-22T10:11:00.599Z,86.82
2018-12-22T10:13:28.486Z,87.35
2018-12-22T10:15:56.049Z,86.85
2018-12-22T10:18:23.686Z,86.90
2018-12-22T10:20:51.218Z,87.17
2018-12-22T10:23:18.784Z,87.81
2018-12-22T10:25:46.521Z,88.69
2018-12-22T10:28:14.076Z,89.35
2018-12-22T10:30:41.620Z,89.69
2018-12-22T10:33:09.523Z,89.42
2018-12-22T10:35:37.092Z,86.22
2018-12-22T10:38:04.630Z,86.74
2018-12-22T10:40:32.323Z,88.09
2018-12-22T10:42:59.874Z,87.88
2018-12-22T10:45:27.426Z,86.80
2018-12-22T10:47:55.005Z,85.72
2018-12-22T10:50:22.529Z,85.87
2018-12-22T10:52:54.923Z,86.16
2018-12-22T10:55:22.505Z,86.30
2018-12-22T10:57:50.072Z,87.15
2018-12-22T11:00:17.774Z,87.49
2018-12-22T11:02:45.353Z,88.13
2018-12-22T11:05:12.957Z,87.41
2018-12-22T11:07:40.663Z,86.61
2018-12-22T11:10:08.340Z,85.15
2018-12-22T11:12:35.897Z,84.89
2018-12-22T11:15:03.597Z,86.63
2018-12-22T11:17:31.181Z,85.61
2018-12-22T11:19:58.705Z,86.21
2018-12-22T11:22:39.312Z,86.75
2018-12-22T11:25:10.457Z,88.03
2018-12-22T11:27:38.016Z,87.32
2018-12-22T11:30:05.843Z,86.89
2018-12-22T11:32:33.385Z,87.49
2018-12-22T11:35:00.992Z,86.01
2018-12-22T11:37:28.696Z,87.06
2018-12-22T11:39:56.263Z,87.15
2018-12-22T11:42:36.311Z,85.52
2018-12-22T11:45:03.950Z,82.84
2018-12-22T11:47:31.557Z,83.80
2018-12-22T11:49:59.244Z,83.36
2018-12-22T11:52:26.797Z,84.79
2018-12-22T11:54:54.347Z,83.22
2018-12-22T11:57:22.249Z,83.32
2018-12-22T11:59:49.807Z,83.97
2018-12-22T12:02:17.392Z,84.19
2018-12-22T12:04:44.957Z,85.25
2018-12-22T12:07:12.521Z,83.58
2018-12-22T12:09:40.098Z,84.30
2018-12-22T12:12:08.043Z,82.57
2018-12-22T12:14:35.654Z,81.43
2018-12-22T12:17:03.248Z,82.55
2018-12-22T12:19:31.129Z,82.90
2018-12-22T12:21:58.697Z,80.81
2018-12-22T12:24:26.294Z,81.26
2018-12-22T12:26:54.055Z,79.33
2018-12-22T12:29:21.609Z,77.41
2018-12-22T12:31:52.200Z,78.46
2018-12-22T12:34:17.213Z,78.43
2018-12-22T12:36:44.772Z,80.00
2018-12-22T12:39:12.346Z,77.56
2018-12-22T12:41:39.985Z,78.23
2018-12-22T12:44:07.561Z,78.60
2018-12-22T12:46:36.037Z,79.54
2018-12-22T12:49:03.908Z,79.45
2018-12-22T12:51:31.473Z,80.72
2018-12-22T12:53:59.069Z,80.68
2018-12-22T12:56:26.903Z,81.56
2018-12-22T12:58:54.485Z,82.41
2018-12-22T13:01:22.025Z,81.89
2018-12-22T13:03:49.826Z,80.42
2018-12-22T13:06:17.396Z,81.01
2018-12-22T13:08:44.978Z,80.76
2018-12-22T13:11:12.731Z,80.95
2018-12-22T13:13:40.377Z,79.32
2018-12-22T13:16:07.949Z,81.49
2018-12-22T13:18:35.680Z,80.69
2018-12-22T13:21:03.292Z,80.65
2018-12-22T13:23:30.851Z,80.35
2018-12-22T13:25:58.587Z,81.45
2018-12-22T13:28:26.155Z,82.96
2018-12-22T13:30:53.734Z,83.89
2018-12-22T13:33:21.680Z,82.59
2018-12-22T13:35:48.971Z,82.86
2018-12-22T13:38:16.544Z,82.41
2018-12-22T13:40:44.501Z,83.61
2018-12-22T13:43:12.085Z,83.26
2018-12-22T13:45:39.655Z,84.19
2018-12-22T13:48:07.604Z,84.77
2018-12-22T13:50:35.042Z,84.44
2018-12-22T13:53:02.556Z,84.68
2018-12-22T13:55:30.233Z,82.93
2018-12-22T13:57:57.876Z,81.43
2018-12-22T14:00:25.486Z,83.02
2018-12-22T14:02:53.208Z,84.74
2018-12-22T14:05:22.337Z,84.61
2018-12-22T14:07:49.896Z,85.71
2018-12-22T14:10:17.677Z,85.42
2018-12-22T14:12:45.259Z,84.86
2018-12-22T14:15:14.796Z,83.79
2018-12-22T14:17:42.605Z,84.19
2018-12-22T14:20:10.206Z,85.34
2018-12-22T14:22:39.855Z,86.19
2018-12-22T14:25:09.168Z,85.75
2018-12-22T14:27:36.732Z,85.72
2018-12-22T14:30:04.318Z,86.10
2018-12-22T14:32:32.037Z,86.04
2018-12-22T14:34:59.659Z,86.09
2018-12-22T14:37:27.209Z,86.88
2018-12-22T14:39:55.125Z,86.79
2018-12-22T14:42:22.686Z,87.02
2018-12-22T14:44:50.237Z,87.28
2018-12-22T14:47:18.234Z,87.74
2018-12-22T14:49:45.733Z,88.71
2018-12-22T14:52:13.315Z,89.48
2018-12-22T14:54:40.946Z,89.99
2018-12-22T14:57:08.527Z,91.01
2018-12-22T14:59:36.066Z,91.53
2018-12-22T15:02:04.200Z,91.70
2018-12-22T15:04:33.830Z,92.72
2018-12-22T15:06:59.485Z,92.11
2018-12-22T15:09:27.186Z,92.55
2018-12-22T15:11:54.770Z,93.37
2018-12-22T15:14:22.340Z,92.92
2018-12-22T15:16:50.262Z,92.70
2018-12-22T15:19:17.863Z,92.99
2018-12-22T15:21:45.453Z,92.90
2018-12-22T15:24:13.073Z,93.04
2018-12-22T15:26:40.625Z,93.25
2018-12-22T15:29:08.185Z,92.92
2018-12-22T15:31:36.045Z,93.63
2018-12-22T15:34:03.638Z,93.92
2018-12-22T15:36:31.249Z,94.02
2018-12-22T15:38:58.887Z,93.76
2018-12-22T15:41:26.447Z,93.68
2018-12-22T15:43:54.031Z,93.61
2018-12-22T15:46:21.696Z,94.21
2018-12-22T15:48:49.269Z,94.29
2018-12-22T15:51:16.806Z,94.36
2018-12-22T15:53:44.424Z,94.62
2018-12-22T15:56:12.004Z,94.54
2018-12-22T15:58:39.578Z,94.84
2018-12-22T16:01:07.501Z,95.18
2018-12-22T16:03:35.117Z,95.86
2018-12-22T16:06:02.703Z,96.23
2018-12-22T16:08:30.444Z,96.48
2018-12-22T16:10:58.001Z,97.28
2018-12-22T16:13:25.537Z,97.63
2018-12-22T16:15:53.274Z,97.77
2018-12-22T16:18:20.894Z,97.99
2018-12-22T16:20:48.490Z,97.95
2018-12-22T16:23:16.232Z,97.52
2018-12-22T16:25:43.807Z,97.39
2018-12-22T16:28:11.420Z,96.97
2018-12-22T16:30:40.252Z,96.83
2018-12-22T16:33:07.828Z,96.74
2018-12-22T16:35:35.397Z,96.74
2018-12-22T16:38:03.004Z,97.04
2018-12-22T16:40:30.591Z,97.51
2018-12-22T16:42:58.155Z,97.71
2018-12-22T16:45:25.823Z,98.00
2018-12-22T16:47:53.404Z,97.52
2018-12-22T16:50:20.938Z,97.44
2018-12-22T16:52:48.832Z,97.54
2018-12-22T16:55:16.451Z,97.84
2018-12-22T16:57:56.837Z,97.92
2018-12-22T17:00:26.212Z,97.68
2018-12-22T17:02:53.820Z,97.60
2018-12-22T17:05:21.775Z,97.74
2018-12-22T17:07:49.382Z,97.62
2018-12-22T17:10:16.975Z,97.28
2018-12-22T17:12:58.093Z,96.85
2018-12-22T17:15:25.695Z,96.91
2018-12-22T17:17:53.236Z,97.03
2018-12-22T17:20:21.097Z,96.64
2018-12-22T17:22:54.385Z,96.99
2018-12-22T17:25:22.334Z,97.45
2018-12-22T17:27:49.890Z,97.64
2018-12-22T17:30:17.460Z,97.58
2018-12-22T17:32:45.249Z,97.07
2018-12-22T17:35:12.875Z,96.86
2018-12-22T17:37:40.405Z,96.91
2018-12-22T17:40:09.721Z,97.12
2018-12-22T17:42:42.103Z,96.72
2018-12-22T17:45:09.773Z,96.56
2018-12-22T17:47:37.324Z,96.27
2018-12-22T17:50:05.028Z,96.01
2018-12-22T17:52:33.999Z,96.62
2018-12-22T17:55:01.594Z,97.03
2018-12-22T17:57:29.229Z,97.22
2018-12-22T17:59:56.946Z,96.74
2018-12-22T18:02:24.584Z,96.40
2018-12-22T18:04:52.129Z,96.36
2018-12-22T18:07:19.952Z,96.27
2018-12-22T18:09:47.546Z,97.18
2018-12-22T18:12:15.104Z,97.25
2018-12-22T18:14:43.050Z,97.73
2018-12-22T18:17:10.607Z,97.72
2018-12-22T18:19:38.197Z,98.31
2018-12-22T18:22:06.026Z,98.43
2018-12-22T18:24:33.612Z,98.19
2018-12-22T18:27:01.166Z,97.78
2018-12-22T18:29:28.806Z,98.09
2018-12-22T18:31:56.366Z,98.56
2018-12-22T18:34:23.909Z,98.50
2018-12-22T18:36:51.792Z,98.28
2018-12-22T18:39:19.356Z,98.75
2018-12-22T18:41:46.921Z,98.79
2018-12-22T18:44:14.646Z,98.75
2018-12-22T18:46:42.189Z,98.87
2018-12-22T18:49:09.732Z,99.19
2018-12-22T18:51:37.641Z,99.04
2018-12-22T18:54:05.202Z,98.78
2018-12-22T18:56:32.808Z,98.67
2018-12-22T18:59:00.499Z,98.74
2018-12-22T19:01:28.081Z,98.93
2018-12-22T19:03:55.653Z,99.07
2018-12-22T19:06:23.423Z,99.21
2018-12-22T19:08:50.979Z,99.69
2018-12-22T19:11:18.707Z,99.74
2018-12-22T19:13:46.400Z,100.00
2018-12-22T19:16:13.965Z,99.89
2018-12-22T19:18:41.530Z,99.54
2018-12-22T19:21:09.251Z,99.17
2018-12-22T19:23:36.818Z,99.22
2018-12-22T19:26:04.392Z,99.23
2018-12-22T19:28:32.193Z,99.05
2018-12-22T19:30:59.771Z,98.59
2018-12-22T19:33:27.346Z,98.46
2018-12-22T19:35:55.005Z,98.03
2018-12-22T19:38:22.563Z,98.28
2018-12-22T19:40:50.149Z,98.53
2018-12-22T19:43:17.874Z,98.30
2018-12-22T19:45:45.467Z,98.18
2018-12-22T19:48:13.104Z,98.24
2018-12-22T19:50:40.882Z,97.14
2018-12-22T19:53:08.456Z,97.64
2018-12-22T19:55:36.029Z,97.95
2018-12-22T19:58:04.151Z,97.87
2018-12-22T20:00:31.713Z,98.18
2018-12-22T20:02:59.292Z,97.64
2018-12-22T20:05:26.901Z,97.54
2018-12-22T20:07:54.456Z,98.06
2018-12-22T20:10:22.027Z,97.98
2018-12-22T20:12:50.041Z,98.07
2018-12-22T20:15:17.618Z,97.95
2018-12-22T20:17:45.193Z,98.23
2018-12-22T20:20:13.018Z,98.54
2018-12-22T20:22:40.581Z,98.58
2018-12-22T20:25:08.192Z,98.61
2018-12-22T20:27:35.922Z,98.85
2018-12-22T20:30:03.548Z,98.30
2018-12-22T20:32:31.117Z,98.09
2018-12-22T20:34:58.921Z,98.46
2018-12-22T20:37:26.490Z,98.63
2018-12-22T20:39:54.067Z,98.78
2018-12-22T20:42:21.769Z,98.83
2018-12-22T20:44:49.321Z,98.68
2018-12-22T20:47:16.969Z,98.18
2018-12-22T20:49:44.560Z,97.69
2018-12-22T20:52:12.115Z,97.35
2018-12-22T20:54:39.653Z,97.29
2018-12-22T20:57:07.370Z,97.33
2018-12-22T20:59:34.947Z,98.41
2018-12-22T21:02:02.563Z,98.61
2018-12-22T21:04:30.186Z,98.81
2018-12-22T21:06:57.761Z,98.14
2018-12-22T21:09:25.322Z,98.00
2018-12-22T21:11:53.113Z,98.45
2018-12-22T21:14:20.700Z,98.47
2018-12-22T21:16:48.298Z,98.68
2018-12-22T21:19:16.034Z,99.18
2018-12-22T21:21:43.635Z,98.93
2018-12-22T21:24:11.213Z,99.10
2018-12-22T21:26:38.968Z,99.71
2018-12-22T21:29:06.555Z,99.59
2018-12-22T21:31:34.083Z,99.52
2018-12-22T21:34:01.829Z,99.53
2018-12-22T21:36:29.390Z,99.45
2018-12-22T21:38:56.918Z,99.55
2018-12-22T21:41:24.599Z,99.63
2018-12-22T21:43:52.190Z,99.37
2018-12-22T21:46:19.782Z,99.50
2018-12-22T21:48:47.689Z,99.20
2018-12-22T21:51:15.249Z,98.45
2018-12-22T21:53:42.809Z,98.14
2018-12-22T21:56:10.398Z,98.97
2018-12-22T21:58:37.959Z,99.25
2018-12-22T22:01:05.527Z,99.02
2018-12-22T22:03:33.228Z,99.02
2018-12-22T22:06:00.797Z,99.04
2018-12-22T22:08:28.322Z,98.79
2018-12-22T22:10:55.969Z,98.68
2018-12-22T22:13:23.853Z,98.02
2018-12-22T22:15:51.433Z,97.37
2018-12-22T22:18:19.306Z,97.74
2018-12-22T22:20:46.856Z,97.92
2018-12-22T22:23:18.864Z,98.13
2018-12-22T22:25:42.199Z,98.95
2018-12-22T22:28:09.774Z,98.56
2018-12-22T22:30:37.360Z,98.86
2018-12-22T22:33:04.986Z,98.92
2018-12-22T22:35:32.536Z,98.55
2018-12-22T22:38:00.114Z,98.74
2018-12-22T22:40:27.741Z,98.26
2018-12-22T22:42:55.310Z,98.15
2018-12-22T22:45:22.925Z,98.15
2018-12-22T22:47:50.546Z,98.12
2018-12-22T22:50:18.093Z,98.23
2018-12-22T22:52:45.639Z,98.04
2018-12-22T22:55:13.562Z,97.90
2018-12-22T22:57:41.188Z,97.63
2018-12-22T23:00:08.823Z,96.98
2018-12-22T23:02:53.621Z,96.84
2018-12-22T23:05:21.417Z,96.91
2018-12-22T23:07:48.948Z,96.65
2018-12-22T23:10:16.500Z,96.07
2018-12-22T23:13:03.385Z,96.20
2018-12-22T23:15:30.945Z,96.59
2018-12-22T23:17:58.508Z,97.28
2018-12-22T23:20:26.166Z,97.41
2018-12-22T23:22:53.748Z,97.18
2018-12-22T23:25:21.320Z,96.76
2018-12-22T23:27:49.129Z,96.57
2018-12-22T23:30:16.678Z,97.07
2018-12-22T23:32:44.232Z,97.84
2018-12-22T23:35:12.139Z,98.49
2018-12-22T23:37:39.669Z,99.00
2018-12-22T23:40:07.265Z,99.00
2018-12-22T23:42:35.901Z,98.50
2018-12-22T23:45:03.613Z,97.67
2018-12-22T23:47:31.092Z,97.39
2018-12-22T23:49:58.776Z,97.68
2018-12-22T23:52:26.342Z,97.79
2018-12-22T23:54:53.877Z,97.85
2018-12-22T23:57:21.546Z,97.78
2018-12-22T23:59:49.097Z,97.74
